sensor_id;sensor_type;location;lat;lon;timestamp;pressure;altitude;pressure_sealevel;temperature;humidity
6514;BME280;3290;47.716;9.070;2023-04-12T00:01:58;96577.19;;;10.44;100.00
6514;BME280;3290;47.716;9.070;2023-04-12T00:04:23;96568.47;;;10.32;100.00
6514;BME280;3290;47.716;9.070;2023-04-12T00:06:51;96561.03;;;10.47;100.00
6514;BME280;3290;47.716;9.070;2023-04-12T00:09:18;96559.63;;;10.33;100.00
6514;BME280;3290;47.716;9.070;2023-04-12T00:11:44;96545.19;;;10.71;100.00
6514;BME280;3290;47.716;9.070;2023-04-12T00:14:09;96541.03;;;10.52;100.00
6514;BME280;3290;47.716;9.070;2023-04-12T00:16:35;96541.75;;;10.71;100.00
6514;BME280;3290;47.716;9.070;2023-04-12T00:19:02;96540.34;;;10.57;100.00
6514;BME280;3290;47.716;9.070;2023-04-12T00:21:27;96529.19;;;10.50;100.00
6514;BME280;3290;47.716;9.070;2023-04-12T00:23:54;96516.00;;;10.68;100.00
6514;BME280;3290;47.716;9.070;2023-04-12T00:26:19;96506.81;;;10.77;100.00
6514;BME280;3290;47.716;9.070;2023-04-12T00:28:45;96493.44;;;10.55;100.00
6514;BME280;3290;47.716;9.070;2023-04-12T00:31:11;96495.41;;;10.82;100.00
6514;BME280;3290;47.716;9.070;2023-04-12T00:33:36;96493.47;;;10.89;100.00
6514;BME280;3290;47.716;9.070;2023-04-12T00:36:02;96492.44;;;10.79;100.00
6514;BME280;3290;47.716;9.070;2023-04-12T00:38:27;96482.97;;;10.67;100.00
6514;BME280;3290;47.716;9.070;2023-04-12T00:40:53;96478.34;;;10.80;100.00
6514;BME280;3290;47.716;9.070;2023-04-12T00:43:18;96478.53;;;10.67;100.00
6514;BME280;3290;47.716;9.070;2023-04-12T00:45:45;96483.44;;;10.86;100.00
6514;BME280;3290;47.716;9.070;2023-04-12T00:48:11;96484.81;;;10.77;100.00
6514;BME280;3290;47.716;9.070;2023-04-12T00:50:37;96476.97;;;11.00;100.00
6514;BME280;3290;47.716;9.070;2023-04-12T00:53:08;96473.31;;;10.78;100.00
6514;BME280;3290;47.716;9.070;2023-04-12T00:55:38;96468.16;;;10.61;100.00
6514;BME280;3290;47.716;9.070;2023-04-12T00:58:04;96467.94;;;10.62;100.00
6514;BME280;3290;47.716;9.070;2023-04-12T01:00:30;96466.31;;;10.50;100.00
6514;BME280;3290;47.716;9.070;2023-04-12T01:02:55;96455.78;;;10.27;100.00
6514;BME280;3290;47.716;9.070;2023-04-12T01:05:22;96442.69;;;10.27;100.00
6514;BME280;3290;47.716;9.070;2023-04-12T01:12:46;96442.09;;;10.25;100.00
6514;BME280;3290;47.716;9.070;2023-04-12T01:15:15;96437.38;;;10.45;100.00
6514;BME280;3290;47.716;9.070;2023-04-12T01:17:46;96440.94;;;10.50;100.00
6514;BME280;3290;47.716;9.070;2023-04-12T01:20:14;96432.19;;;10.68;100.00
6514;BME280;3290;47.716;9.070;2023-04-12T01:25:58;96415.31;;;10.64;100.00
6514;BME280;3290;47.716;9.070;2023-04-12T01:28:34;96409.84;;;10.54;100.00
6514;BME280;3290;47.716;9.070;2023-04-12T01:31:02;96401.19;;;10.65;100.00
6514;BME280;3290;47.716;9.070;2023-04-12T01:33:28;96409.28;;;10.52;100.00
6514;BME280;3290;47.716;9.070;2023-04-12T01:35:58;96398.69;;;10.47;100.00
6514;BME280;3290;47.716;9.070;2023-04-12T01:38:25;96393.06;;;10.32;100.00
6514;BME280;3290;47.716;9.070;2023-04-12T01:40:51;96391.97;;;10.39;100.00
6514;BME280;3290;47.716;9.070;2023-04-12T01:43:16;96380.19;;;10.19;100.00
6514;BME280;3290;47.716;9.070;2023-04-12T01:45:42;96384.97;;;10.22;100.00
6514;BME280;3290;47.716;9.070;2023-04-12T01:48:09;96383.59;;;10.20;100.00
6514;BME280;3290;47.716;9.070;2023-04-12T01:51:03;96379.41;;;10.30;100.00
6514;BME280;3290;47.716;9.070;2023-04-12T01:56:30;96371.09;;;10.44;100.00
6514;BME280;3290;47.716;9.070;2023-04-12T01:58:56;96370.06;;;10.34;100.00
6514;BME280;3290;47.716;9.070;2023-04-12T02:01:23;96374.50;;;10.22;100.00
6514;BME280;3290;47.716;9.070;2023-04-12T02:03:50;96364.56;;;10.13;100.00
6514;BME280;3290;47.716;9.070;2023-04-12T02:06:19;96364.34;;;10.14;100.00
6514;BME280;3290;47.716;9.070;2023-04-12T02:08:45;96361.84;;;10.08;100.00
6514;BME280;3290;47.716;9.070;2023-04-12T02:11:12;96360.03;;;10.20;100.00
6514;BME280;3290;47.716;9.070;2023-04-12T02:13:39;96359.59;;;10.11;100.00
6514;BME280;3290;47.716;9.070;2023-04-12T02:16:05;96359.03;;;10.21;100.00
6514;BME280;3290;47.716;9.070;2023-04-12T02:18:32;96354.00;;;10.19;100.00
6514;BME280;3290;47.716;9.070;2023-04-12T02:20:59;96347.53;;;10.33;100.00
6514;BME280;3290;47.716;9.070;2023-04-12T02:23:25;96334.69;;;10.20;100.00
6514;BME280;3290;47.716;9.070;2023-04-12T02:25:50;96325.31;;;10.01;100.00
6514;BME280;3290;47.716;9.070;2023-04-12T02:28:15;96314.94;;;9.95;100.00
6514;BME280;3290;47.716;9.070;2023-04-12T02:30:41;96300.16;;;10.00;100.00
6514;BME280;3290;47.716;9.070;2023-04-12T02:33:07;96293.78;;;9.97;100.00
6514;BME280;3290;47.716;9.070;2023-04-12T02:35:34;96289.00;;;10.05;100.00
6514;BME280;3290;47.716;9.070;2023-04-12T02:38:01;96284.84;;;9.86;100.00
6514;BME280;3290;47.716;9.070;2023-04-12T02:40:28;96278.28;;;9.84;100.00
6514;BME280;3290;47.716;9.070;2023-04-12T02:42:54;96286.47;;;9.87;100.00
6514;BME280;3290;47.716;9.070;2023-04-12T02:45:19;96279.72;;;9.80;100.00
6514;BME280;3290;47.716;9.070;2023-04-12T02:47:44;96275.25;;;9.98;100.00
6514;BME280;3290;47.716;9.070;2023-04-12T02:50:10;96278.22;;;9.72;100.00
6514;BME280;3290;47.716;9.070;2023-04-12T02:52:35;96282.03;;;9.88;100.00
6514;BME280;3290;47.716;9.070;2023-04-12T02:55:01;96285.13;;;10.07;100.00
6514;BME280;3290;47.716;9.070;2023-04-12T02:57:26;96288.16;;;9.82;100.00
6514;BME280;3290;47.716;9.070;2023-04-12T02:59:52;96284.59;;;9.76;100.00
6514;BME280;3290;47.716;9.070;2023-04-12T03:02:18;96277.88;;;9.69;100.00
6514;BME280;3290;47.716;9.070;2023-04-12T03:04:44;96270.19;;;9.85;100.00
6514;BME280;3290;47.716;9.070;2023-04-12T03:07:11;96270.81;;;10.10;100.00
6514;BME280;3290;47.716;9.070;2023-04-12T03:09:37;96262.75;;;10.11;100.00
6514;BME280;3290;47.716;9.070;2023-04-12T03:12:03;96247.72;;;10.07;100.00
6514;BME280;3290;47.716;9.070;2023-04-12T03:14:28;96255.38;;;9.79;100.00
6514;BME280;3290;47.716;9.070;2023-04-12T03:16:53;96245.41;;;9.88;100.00
6514;BME280;3290;47.716;9.070;2023-04-12T03:19:19;96244.81;;;9.86;100.00
6514;BME280;3290;47.716;9.070;2023-04-12T03:21:44;96239.72;;;9.91;100.00
6514;BME280;3290;47.716;9.070;2023-04-12T03:24:10;96240.72;;;9.90;100.00
6514;BME280;3290;47.716;9.070;2023-04-12T03:26:35;96231.66;;;10.03;100.00
6514;BME280;3290;47.716;9.070;2023-04-12T03:29:02;96238.03;;;10.07;100.00
6514;BME280;3290;47.716;9.070;2023-04-12T03:31:33;96238.38;;;10.22;100.00
6514;BME280;3290;47.716;9.070;2023-04-12T03:33:59;96235.28;;;10.02;100.00
6514;BME280;3290;47.716;9.070;2023-04-12T03:36:24;96240.88;;;10.17;100.00
6514;BME280;3290;47.716;9.070;2023-04-12T03:38:51;96239.41;;;10.33;100.00
6514;BME280;3290;47.716;9.070;2023-04-12T03:41:17;96232.69;;;10.02;100.00
6514;BME280;3290;47.716;9.070;2023-04-12T03:43:42;96230.28;;;10.35;100.00
6514;BME280;3290;47.716;9.070;2023-04-12T03:46:08;96230.75;;;10.09;100.00
6514;BME280;3290;47.716;9.070;2023-04-12T03:48:33;96221.53;;;9.96;100.00
6514;BME280;3290;47.716;9.070;2023-04-12T03:50:59;96220.84;;;10.00;100.00
6514;BME280;3290;47.716;9.070;2023-04-12T03:53:33;96217.19;;;9.90;100.00
6514;BME280;3290;47.716;9.070;2023-04-12T03:55:58;96217.19;;;9.90;100.00
6514;BME280;3290;47.716;9.070;2023-04-12T03:58:23;96208.56;;;10.00;100.00
6514;BME280;3290;47.716;9.070;2023-04-12T04:00:49;96200.91;;;9.88;100.00
6514;BME280;3290;47.716;9.070;2023-04-12T04:03:14;96204.13;;;10.12;100.00
6514;BME280;3290;47.716;9.070;2023-04-12T04:05:40;96205.94;;;10.23;100.00
6514;BME280;3290;47.716;9.070;2023-04-12T04:08:06;96211.75;;;10.14;100.00
6514;BME280;3290;47.716;9.070;2023-04-12T04:10:32;96203.81;;;9.98;100.00
6514;BME280;3290;47.716;9.070;2023-04-12T04:13:01;96174.88;;;9.70;100.00
6514;BME280;3290;47.716;9.070;2023-04-12T04:15:26;96188.78;;;10.04;100.00
6514;BME280;3290;47.716;9.070;2023-04-12T04:17:52;96193.78;;;10.17;100.00
6514;BME280;3290;47.716;9.070;2023-04-12T04:20:18;96174.56;;;10.12;100.00
6514;BME280;3290;47.716;9.070;2023-04-12T04:22:44;96165.78;;;10.06;100.00
6514;BME280;3290;47.716;9.070;2023-04-12T04:25:13;96160.69;;;10.11;100.00
6514;BME280;3290;47.716;9.070;2023-04-12T04:27:42;96152.38;;;10.03;100.00
6514;BME280;3290;47.716;9.070;2023-04-12T04:30:11;96156.00;;;9.91;100.00
6514;BME280;3290;47.716;9.070;2023-04-12T04:32:37;96142.59;;;9.98;100.00
6514;BME280;3290;47.716;9.070;2023-04-12T04:35:04;96151.66;;;10.07;100.00
6514;BME280;3290;47.716;9.070;2023-04-12T04:37:30;96150.06;;;10.29;100.00
6514;BME280;3290;47.716;9.070;2023-04-12T04:39:55;96136.75;;;10.19;100.00
6514;BME280;3290;47.716;9.070;2023-04-12T04:42:21;96130.50;;;10.09;100.00
6514;BME280;3290;47.716;9.070;2023-04-12T04:44:47;96134.59;;;10.16;100.00
6514;BME280;3290;47.716;9.070;2023-04-12T04:47:15;96124.81;;;10.00;100.00
6514;BME280;3290;47.716;9.070;2023-04-12T04:49:40;96124.81;;;10.00;100.00
6514;BME280;3290;47.716;9.070;2023-04-12T04:52:07;96132.09;;;9.53;100.00
6514;BME280;3290;47.716;9.070;2023-04-12T04:54:33;96136.44;;;9.70;100.00
6514;BME280;3290;47.716;9.070;2023-04-12T04:56:59;96133.22;;;9.80;100.00
6514;BME280;3290;47.716;9.070;2023-04-12T04:59:25;96140.63;;;9.49;100.00
6514;BME280;3290;47.716;9.070;2023-04-12T05:01:51;96141.75;;;9.64;100.00
6514;BME280;3290;47.716;9.070;2023-04-12T05:04:16;96131.66;;;9.56;100.00
6514;BME280;3290;47.716;9.070;2023-04-12T05:06:41;96133.13;;;9.63;100.00
6514;BME280;3290;47.716;9.070;2023-04-12T05:09:07;96132.69;;;9.66;100.00
6514;BME280;3290;47.716;9.070;2023-04-12T05:11:32;96137.69;;;9.91;100.00
6514;BME280;3290;47.716;9.070;2023-04-12T05:13:57;96136.88;;;9.79;100.00
6514;BME280;3290;47.716;9.070;2023-04-12T05:16:23;96122.78;;;9.57;100.00
6514;BME280;3290;47.716;9.070;2023-04-12T05:18:48;96118.81;;;9.66;100.00
6514;BME280;3290;47.716;9.070;2023-04-12T05:21:13;96108.22;;;9.72;100.00
6514;BME280;3290;47.716;9.070;2023-04-12T05:23:44;96115.59;;;9.64;100.00
6514;BME280;3290;47.716;9.070;2023-04-12T05:26:11;96107.56;;;9.77;100.00
6514;BME280;3290;47.716;9.070;2023-04-12T05:28:36;96109.56;;;9.86;100.00
6514;BME280;3290;47.716;9.070;2023-04-12T05:31:02;96100.59;;;9.71;100.00
6514;BME280;3290;47.716;9.070;2023-04-12T05:33:27;96096.41;;;9.93;100.00
6514;BME280;3290;47.716;9.070;2023-04-12T05:35:52;96096.84;;;9.90;100.00
6514;BME280;3290;47.716;9.070;2023-04-12T05:38:18;96099.81;;;10.04;100.00
6514;BME280;3290;47.716;9.070;2023-04-12T05:40:43;96099.69;;;9.88;100.00
6514;BME280;3290;47.716;9.070;2023-04-12T05:43:09;96103.75;;;10.18;100.00
6514;BME280;3290;47.716;9.070;2023-04-12T05:45:38;96110.41;;;10.37;100.00
6514;BME280;3290;47.716;9.070;2023-04-12T05:48:04;96092.47;;;10.29;100.00
6514;BME280;3290;47.716;9.070;2023-04-12T05:50:30;96096.88;;;10.29;100.00
6514;BME280;3290;47.716;9.070;2023-04-12T05:52:55;96093.72;;;10.27;100.00
6514;BME280;3290;47.716;9.070;2023-04-12T05:55:20;96088.22;;;10.39;100.00
6514;BME280;3290;47.716;9.070;2023-04-12T05:57:46;96084.44;;;10.47;100.00
6514;BME280;3290;47.716;9.070;2023-04-12T06:00:13;96079.75;;;10.49;100.00
6514;BME280;3290;47.716;9.070;2023-04-12T06:02:42;96075.25;;;10.61;100.00
6514;BME280;3290;47.716;9.070;2023-04-12T06:05:08;96084.00;;;10.66;100.00
6514;BME280;3290;47.716;9.070;2023-04-12T06:07:35;96070.50;;;10.74;100.00
6514;BME280;3290;47.716;9.070;2023-04-12T06:10:01;96063.94;;;10.72;100.00
6514;BME280;3290;47.716;9.070;2023-04-12T06:12:26;96055.66;;;10.79;100.00
6514;BME280;3290;47.716;9.070;2023-04-12T06:14:51;96056.53;;;10.69;100.00
6514;BME280;3290;47.716;9.070;2023-04-12T06:17:17;96052.06;;;10.53;100.00
6514;BME280;3290;47.716;9.070;2023-04-12T06:19:42;96040.06;;;10.57;100.00
6514;BME280;3290;47.716;9.070;2023-04-12T06:22:07;96037.50;;;10.29;100.00
6514;BME280;3290;47.716;9.070;2023-04-12T06:24:33;96034.44;;;10.48;100.00
6514;BME280;3290;47.716;9.070;2023-04-12T06:26:58;96028.56;;;10.58;100.00
6514;BME280;3290;47.716;9.070;2023-04-12T06:29:23;96026.81;;;10.47;100.00
6514;BME280;3290;47.716;9.070;2023-04-12T06:31:49;96026.50;;;10.60;100.00
6514;BME280;3290;47.716;9.070;2023-04-12T06:34:14;96019.13;;;10.57;100.00
6514;BME280;3290;47.716;9.070;2023-04-12T06:36:40;96000.41;;;10.81;100.00
6514;BME280;3290;47.716;9.070;2023-04-12T06:39:06;96007.09;;;10.72;100.00
6514;BME280;3290;47.716;9.070;2023-04-12T06:41:32;96002.16;;;10.76;100.00
6514;BME280;3290;47.716;9.070;2023-04-12T06:43:58;95999.94;;;10.84;100.00
6514;BME280;3290;47.716;9.070;2023-04-12T06:46:27;95986.53;;;10.80;100.00
6514;BME280;3290;47.716;9.070;2023-04-12T06:48:52;95990.34;;;10.89;100.00
6514;BME280;3290;47.716;9.070;2023-04-12T06:51:18;95975.97;;;11.08;100.00
6514;BME280;3290;47.716;9.070;2023-04-12T06:53:43;95975.81;;;10.98;100.00
6514;BME280;3290;47.716;9.070;2023-04-12T06:56:08;95961.97;;;11.19;100.00
6514;BME280;3290;47.716;9.070;2023-04-12T06:58:34;95963.22;;;11.33;100.00
6514;BME280;3290;47.716;9.070;2023-04-12T07:01:06;95952.34;;;11.24;100.00
6514;BME280;3290;47.716;9.070;2023-04-12T07:03:33;95960.72;;;11.43;100.00
6514;BME280;3290;47.716;9.070;2023-04-12T07:05:59;95956.25;;;11.22;100.00
6514;BME280;3290;47.716;9.070;2023-04-12T07:08:31;95962.78;;;11.57;100.00
6514;BME280;3290;47.716;9.070;2023-04-12T07:10:56;95946.53;;;11.60;100.00
6514;BME280;3290;47.716;9.070;2023-04-12T07:13:22;95938.25;;;11.68;100.00
6514;BME280;3290;47.716;9.070;2023-04-12T07:15:48;95940.72;;;11.79;100.00
6514;BME280;3290;47.716;9.070;2023-04-12T07:18:15;95936.97;;;11.92;100.00
6514;BME280;3290;47.716;9.070;2023-04-12T07:20:40;95930.78;;;12.29;100.00
6514;BME280;3290;47.716;9.070;2023-04-12T07:23:05;95933.47;;;12.34;100.00
6514;BME280;3290;47.716;9.070;2023-04-12T07:25:31;95929.34;;;11.95;100.00
6514;BME280;3290;47.716;9.070;2023-04-12T07:27:56;95927.63;;;12.32;100.00
6514;BME280;3290;47.716;9.070;2023-04-12T07:30:22;95919.47;;;12.28;100.00
6514;BME280;3290;47.716;9.070;2023-04-12T07:32:47;95923.25;;;12.11;100.00
6514;BME280;3290;47.716;9.070;2023-04-12T07:35:13;95913.53;;;11.85;100.00
6514;BME280;3290;47.716;9.070;2023-04-12T07:37:38;95910.94;;;11.64;100.00
6514;BME280;3290;47.716;9.070;2023-04-12T07:40:05;95909.22;;;11.74;100.00
6514;BME280;3290;47.716;9.070;2023-04-12T07:42:30;95908.13;;;11.97;100.00
6514;BME280;3290;47.716;9.070;2023-04-12T07:44:55;95894.59;;;12.36;100.00
6514;BME280;3290;47.716;9.070;2023-04-12T07:47:21;95896.84;;;12.53;100.00
6514;BME280;3290;47.716;9.070;2023-04-12T07:49:46;95888.56;;;12.71;100.00
6514;BME280;3290;47.716;9.070;2023-04-12T07:52:11;95886.81;;;12.50;100.00
6514;BME280;3290;47.716;9.070;2023-04-12T07:54:37;95882.53;;;12.71;100.00
6514;BME280;3290;47.716;9.070;2023-04-12T07:57:02;95888.13;;;13.20;100.00
6514;BME280;3290;47.716;9.070;2023-04-12T07:59:29;95891.53;;;13.20;100.00
6514;BME280;3290;47.716;9.070;2023-04-12T08:01:55;95893.28;;;13.56;100.00
6514;BME280;3290;47.716;9.070;2023-04-12T08:04:20;95894.94;;;13.77;97.93
6514;BME280;3290;47.716;9.070;2023-04-12T08:06:46;95898.06;;;13.64;96.98
6514;BME280;3290;47.716;9.070;2023-04-12T08:09:11;95888.59;;;13.73;95.28
6514;BME280;3290;47.716;9.070;2023-04-12T08:11:36;95882.41;;;14.03;94.80
6514;BME280;3290;47.716;9.070;2023-04-12T08:14:02;95879.81;;;14.23;96.44
6514;BME280;3290;47.716;9.070;2023-04-12T08:16:27;95878.25;;;14.42;95.70
6514;BME280;3290;47.716;9.070;2023-04-12T08:18:52;95873.50;;;14.59;94.58
6514;BME280;3290;47.716;9.070;2023-04-12T08:21:18;95875.34;;;14.53;92.74
6514;BME280;3290;47.716;9.070;2023-04-12T08:23:43;95874.53;;;14.78;90.29
6514;BME280;3290;47.716;9.070;2023-04-12T08:26:09;95862.38;;;15.16;90.33
6514;BME280;3290;47.716;9.070;2023-04-12T08:28:34;95867.66;;;15.16;89.84
6514;BME280;3290;47.716;9.070;2023-04-12T08:31:00;95859.22;;;15.19;89.86
6514;BME280;3290;47.716;9.070;2023-04-12T08:33:25;95850.75;;;15.12;86.81
6514;BME280;3290;47.716;9.070;2023-04-12T08:35:51;95836.47;;;15.28;88.67
6514;BME280;3290;47.716;9.070;2023-04-12T08:38:17;95841.25;;;15.06;84.70
6514;BME280;3290;47.716;9.070;2023-04-12T08:40:42;95846.00;;;15.09;85.34
6514;BME280;3290;47.716;9.070;2023-04-12T08:43:10;95852.88;;;15.05;87.68
6514;BME280;3290;47.716;9.070;2023-04-12T08:45:36;95843.50;;;16.05;82.82
6514;BME280;3290;47.716;9.070;2023-04-12T08:48:03;95850.22;;;15.20;87.34
6514;BME280;3290;47.716;9.070;2023-04-12T08:50:29;95846.31;;;14.78;89.56
6514;BME280;3290;47.716;9.070;2023-04-12T08:52:57;95859.78;;;14.81;90.53
6514;BME280;3290;47.716;9.070;2023-04-12T08:55:22;95846.22;;;15.37;87.08
6514;BME280;3290;47.716;9.070;2023-04-12T08:57:48;95844.41;;;15.08;88.01
6514;BME280;3290;47.716;9.070;2023-04-12T09:00:16;95834.88;;;15.37;86.72
6514;BME280;3290;47.716;9.070;2023-04-12T09:02:41;95825.41;;;15.84;80.96
6514;BME280;3290;47.716;9.070;2023-04-12T09:05:10;95822.84;;;16.78;78.72
6514;BME280;3290;47.716;9.070;2023-04-12T09:07:36;95820.41;;;16.20;77.87
6514;BME280;3290;47.716;9.070;2023-04-12T09:10:02;95824.19;;;16.99;75.42
6514;BME280;3290;47.716;9.070;2023-04-12T09:12:29;95818.28;;;16.83;75.34
6514;BME280;3290;47.716;9.070;2023-04-12T09:15:12;95813.16;;;17.43;74.56
6514;BME280;3290;47.716;9.070;2023-04-12T09:17:38;95815.78;;;17.20;75.14
6514;BME280;3290;47.716;9.070;2023-04-12T09:22:42;95803.50;;;17.06;72.67
6514;BME280;3290;47.716;9.070;2023-04-12T09:25:10;95810.13;;;16.80;73.53
6514;BME280;3290;47.716;9.070;2023-04-12T09:27:46;95811.34;;;17.16;68.91
6514;BME280;3290;47.716;9.070;2023-04-12T09:30:12;95808.63;;;16.69;71.29
6514;BME280;3290;47.716;9.070;2023-04-12T09:32:38;95806.75;;;17.26;69.52
6514;BME280;3290;47.716;9.070;2023-04-12T09:35:03;95809.19;;;17.64;66.27
6514;BME280;3290;47.716;9.070;2023-04-12T09:37:30;95811.50;;;17.47;68.36
6514;BME280;3290;47.716;9.070;2023-04-12T09:40:08;95809.34;;;17.31;67.10
6514;BME280;3290;47.716;9.070;2023-04-12T09:42:47;95813.97;;;16.64;68.45
6514;BME280;3290;47.716;9.070;2023-04-12T09:45:20;95818.84;;;16.19;71.33
6514;BME280;3290;47.716;9.070;2023-04-12T09:47:46;95806.03;;;15.98;73.76
6514;BME280;3290;47.716;9.070;2023-04-12T09:50:38;95803.94;;;15.90;73.90
6514;BME280;3290;47.716;9.070;2023-04-12T09:53:15;95798.81;;;16.75;71.87
6514;BME280;3290;47.716;9.070;2023-04-12T09:55:41;95802.06;;;16.90;73.08
6514;BME280;3290;47.716;9.070;2023-04-12T09:58:07;95796.28;;;16.32;75.30
6514;BME280;3290;47.716;9.070;2023-04-12T10:00:34;95803.94;;;15.90;75.29
6514;BME280;3290;47.716;9.070;2023-04-12T10:03:00;95812.84;;;16.42;75.78
6514;BME280;3290;47.716;9.070;2023-04-12T10:05:26;95801.09;;;16.81;74.98
6514;BME280;3290;47.716;9.070;2023-04-12T10:07:51;95796.53;;;17.38;73.48
6514;BME280;3290;47.716;9.070;2023-04-12T10:10:18;95797.41;;;16.26;74.39
6514;BME280;3290;47.716;9.070;2023-04-12T10:12:45;95803.84;;;16.43;72.63
6514;BME280;3290;47.716;9.070;2023-04-12T10:15:11;95801.03;;;16.35;76.08
6514;BME280;3290;47.716;9.070;2023-04-12T10:17:42;95807.72;;;16.22;75.65
6514;BME280;3290;47.716;9.070;2023-04-12T10:20:14;95818.69;;;16.39;76.91
6514;BME280;3290;47.716;9.070;2023-04-12T10:22:41;95809.66;;;16.73;75.16
6514;BME280;3290;47.716;9.070;2023-04-12T10:25:12;95808.47;;;17.12;75.21
6514;BME280;3290;47.716;9.070;2023-04-12T10:27:39;95816.91;;;16.91;75.32
6514;BME280;3290;47.716;9.070;2023-04-12T10:30:28;95819.56;;;17.37;73.96
6514;BME280;3290;47.716;9.070;2023-04-12T10:35:52;95817.16;;;17.18;72.28
6514;BME280;3290;47.716;9.070;2023-04-12T10:38:18;95818.84;;;17.32;71.52
6514;BME280;3290;47.716;9.070;2023-04-12T10:41:06;95813.53;;;17.32;71.74
6514;BME280;3290;47.716;9.070;2023-04-12T10:43:32;95822.16;;;17.42;72.01
6514;BME280;3290;47.716;9.070;2023-04-12T10:45:57;95828.34;;;17.56;69.98
6514;BME280;3290;47.716;9.070;2023-04-12T10:51:23;95832.03;;;17.97;69.29
6514;BME280;3290;47.716;9.070;2023-04-12T10:56:46;95820.13;;;17.76;66.45
6514;BME280;3290;47.716;9.070;2023-04-12T10:59:12;95813.00;;;17.95;65.21
6514;BME280;3290;47.716;9.070;2023-04-12T11:01:39;95813.00;;;17.95;65.05
6514;BME280;3290;47.716;9.070;2023-04-12T11:09:05;95815.13;;;16.53;68.72
6514;BME280;3290;47.716;9.070;2023-04-12T11:11:33;95818.28;;;16.55;69.33
6514;BME280;3290;47.716;9.070;2023-04-12T11:14:00;95821.53;;;16.47;70.06
6514;BME280;3290;47.716;9.070;2023-04-12T11:16:26;95824.41;;;15.70;73.37
6514;BME280;3290;47.716;9.070;2023-04-12T11:18:52;95833.00;;;15.37;78.19
6514;BME280;3290;47.716;9.070;2023-04-12T11:21:18;95815.63;;;15.26;78.67
6514;BME280;3290;47.716;9.070;2023-04-12T11:23:44;95819.09;;;15.07;81.53
6514;BME280;3290;47.716;9.070;2023-04-12T11:26:10;95824.91;;;15.14;83.47
6514;BME280;3290;47.716;9.070;2023-04-12T11:28:36;95827.81;;;14.98;87.18
6514;BME280;3290;47.716;9.070;2023-04-12T11:31:02;95814.72;;;14.68;93.34
6514;BME280;3290;47.716;9.070;2023-04-12T11:35:55;95810.22;;;14.59;94.62
6514;BME280;3290;47.716;9.070;2023-04-12T11:38:21;95801.78;;;14.67;95.19
6514;BME280;3290;47.716;9.070;2023-04-12T11:40:47;95809.44;;;14.58;94.49
6514;BME280;3290;47.716;9.070;2023-04-12T11:43:18;95815.50;;;14.59;96.77
6514;BME280;3290;47.716;9.070;2023-04-12T11:45:44;95816.06;;;14.46;96.03
6514;BME280;3290;47.716;9.070;2023-04-12T11:48:10;95815.69;;;14.97;95.33
6514;BME280;3290;47.716;9.070;2023-04-12T11:50:35;95812.31;;;14.77;94.09
6514;BME280;3290;47.716;9.070;2023-04-12T11:53:12;95813.38;;;14.66;94.79
6514;BME280;3290;47.716;9.070;2023-04-12T11:55:38;95811.31;;;14.58;94.69
6514;BME280;3290;47.716;9.070;2023-04-12T11:58:03;95807.03;;;14.86;97.83
6514;BME280;3290;47.716;9.070;2023-04-12T12:00:28;95805.19;;;14.77;94.79
6514;BME280;3290;47.716;9.070;2023-04-12T12:02:55;95797.44;;;15.15;95.62
6514;BME280;3290;47.716;9.070;2023-04-12T12:05:21;95790.59;;;15.04;94.56
6514;BME280;3290;47.716;9.070;2023-04-12T12:07:47;95777.94;;;15.01;97.70
6514;BME280;3290;47.716;9.070;2023-04-12T12:10:13;95769.78;;;15.03;96.14
6514;BME280;3290;47.716;9.070;2023-04-12T12:12:42;95777.53;;;14.65;94.61
6514;BME280;3290;47.716;9.070;2023-04-12T12:15:07;95781.28;;;15.36;93.99
6514;BME280;3290;47.716;9.070;2023-04-12T12:17:36;95781.09;;;15.66;90.78
6514;BME280;3290;47.716;9.070;2023-04-12T12:20:04;95785.59;;;15.65;89.69
6514;BME280;3290;47.716;9.070;2023-04-12T12:22:30;95775.97;;;15.89;89.82
6514;BME280;3290;47.716;9.070;2023-04-12T12:24:58;95783.56;;;15.58;89.87
6514;BME280;3290;47.716;9.070;2023-04-12T12:30:15;95789.00;;;15.18;94.33
6514;BME280;3290;47.716;9.070;2023-04-12T12:32:41;95780.31;;;15.08;94.62
6514;BME280;3290;47.716;9.070;2023-04-12T12:35:08;95777.50;;;14.70;96.17
6514;BME280;3290;47.716;9.070;2023-04-12T12:37:34;95769.56;;;14.84;95.35
6514;BME280;3290;47.716;9.070;2023-04-12T12:40:04;95770.09;;;14.81;95.28
6514;BME280;3290;47.716;9.070;2023-04-12T12:42:58;95790.34;;;15.06;92.17
6514;BME280;3290;47.716;9.070;2023-04-12T12:45:25;95791.72;;;14.83;94.50
6514;BME280;3290;47.716;9.070;2023-04-12T12:48:00;95791.25;;;14.62;94.78
6514;BME280;3290;47.716;9.070;2023-04-12T12:50:31;95788.34;;;14.58;94.05
6514;BME280;3290;47.716;9.070;2023-04-12T12:52:57;95790.22;;;14.38;94.66
6514;BME280;3290;47.716;9.070;2023-04-12T12:55:25;95794.16;;;14.26;95.76
6514;BME280;3290;47.716;9.070;2023-04-12T12:57:53;95800.47;;;13.95;97.71
6514;BME280;3290;47.716;9.070;2023-04-12T13:00:23;95789.72;;;14.16;97.68
6514;BME280;3290;47.716;9.070;2023-04-12T13:02:50;95776.00;;;14.14;98.21
6514;BME280;3290;47.716;9.070;2023-04-12T13:05:16;95763.34;;;13.97;98.02
6514;BME280;3290;47.716;9.070;2023-04-12T13:07:41;95758.06;;;13.97;98.73
6514;BME280;3290;47.716;9.070;2023-04-12T13:10:08;95739.38;;;14.28;98.20
6514;BME280;3290;47.716;9.070;2023-04-12T13:12:34;95730.69;;;14.22;98.63
6514;BME280;3290;47.716;9.070;2023-04-12T13:15:00;95725.84;;;14.74;96.32
6514;BME280;3290;47.716;9.070;2023-04-12T13:17:26;95720.09;;;14.47;96.12
6514;BME280;3290;47.716;9.070;2023-04-12T13:19:52;95716.91;;;14.60;94.28
6514;BME280;3290;47.716;9.070;2023-04-12T13:22:18;95723.13;;;14.88;93.58
6514;BME280;3290;47.716;9.070;2023-04-12T13:24:44;95724.59;;;15.24;92.89
6514;BME280;3290;47.716;9.070;2023-04-12T13:27:13;95714.22;;;15.37;90.47
6514;BME280;3290;47.716;9.070;2023-04-12T13:29:45;95715.66;;;15.15;90.18
6514;BME280;3290;47.716;9.070;2023-04-12T13:32:10;95721.44;;;15.22;90.77
6514;BME280;3290;47.716;9.070;2023-04-12T13:34:35;95715.91;;;15.19;89.62
6514;BME280;3290;47.716;9.070;2023-04-12T13:37:01;95715.50;;;14.82;88.88
6514;BME280;3290;47.716;9.070;2023-04-12T13:39:27;95709.53;;;14.62;89.22
6514;BME280;3290;47.716;9.070;2023-04-12T13:41:52;95705.03;;;14.62;92.10
6514;BME280;3290;47.716;9.070;2023-04-12T13:44:18;95706.63;;;14.68;92.37
6514;BME280;3290;47.716;9.070;2023-04-12T13:46:43;95697.97;;;14.48;93.50
6514;BME280;3290;47.716;9.070;2023-04-12T13:49:09;95695.28;;;14.63;91.87